createdAt,value
2018-02-06T00:02:13.410Z,1.93
2018-02-06T00:04:42.971Z,1.97
2018-02-06T00:07:12.464Z,2.80
2018-02-06T00:09:42.057Z,2.63
2018-02-06T00:12:11.606Z,1.87
2018-02-06T00:14:41.179Z,1.80
2018-02-06T00:17:10.728Z,2.70
2018-02-06T00:19:40.230Z,2.03
2018-02-06T00:22:09.813Z,2.40
2018-02-06T00:24:51.423Z,2.17
2018-02-06T00:27:21.428Z,2.60
2018-02-06T00:29:51.813Z,2.73
2018-02-06T00:32:21.602Z,2.80
2018-02-06T00:35:03.956Z,2.57
2018-02-06T00:37:34.005Z,2.90
2018-02-06T00:40:05.514Z,4.30
2018-02-06T00:42:35.038Z,3.10
2018-02-06T00:45:05.614Z,2.73
2018-02-06T00:47:35.192Z,3.63
2018-02-06T00:50:04.712Z,4.03
2018-02-06T00:52:43.350Z,3.00
2018-02-06T00:55:12.901Z,2.77
2018-02-06T00:57:57.750Z,2.57
2018-02-06T01:00:27.703Z,2.83
2018-02-06T01:02:57.535Z,2.67
2018-02-06T01:05:28.238Z,3.80
2018-02-06T01:07:58.104Z,4.00
2018-02-06T01:10:27.875Z,3.00
2018-02-06T01:12:57.530Z,3.70
2018-02-06T01:15:27.072Z,3.23
2018-02-06T01:17:56.646Z,2.80
2018-02-06T01:20:39.196Z,2.57
2018-02-06T01:23:09.614Z,3.07
2018-02-06T01:25:40.920Z,3.03
2018-02-06T01:28:10.443Z,2.90
2018-02-06T01:30:39.979Z,3.70
2018-02-06T01:33:15.729Z,3.57
2018-02-06T01:35:45.293Z,4.23
2018-02-06T01:38:14.813Z,2.67
2018-02-06T01:40:44.530Z,3.53
2018-02-06T01:43:14.079Z,3.33
2018-02-06T01:45:43.589Z,3.90
2018-02-06T01:48:13.143Z,5.27
2018-02-06T01:50:42.658Z,4.07
2018-02-06T01:53:18.533Z,4.00
2018-02-06T01:55:48.080Z,4.13
2018-02-06T01:58:17.643Z,6.80
2018-02-06T02:00:47.211Z,5.43
2018-02-06T02:03:23.063Z,5.93
2018-02-06T02:05:52.636Z,6.73
2018-02-06T02:08:22.377Z,6.73
2018-02-06T02:10:58.122Z,6.17
2018-02-06T02:13:29.765Z,6.00
2018-02-06T02:15:59.310Z,7.40
2018-02-06T02:18:28.835Z,6.17
2018-02-06T02:20:58.601Z,5.90
2018-02-06T02:23:28.226Z,6.00
2018-02-06T02:25:59.589Z,5.23
2018-02-06T02:28:37.023Z,5.10
2018-02-06T02:31:06.799Z,5.43
2018-02-06T02:33:36.781Z,5.70
2018-02-06T02:36:12.464Z,7.03
2018-02-06T02:38:56.698Z,6.20
2018-02-06T02:41:27.529Z,6.00
2018-02-06T04:40:33.065Z,5.03
2018-02-06T04:43:14.710Z,3.73
2018-02-06T04:45:44.441Z,3.83
2018-02-06T04:48:27.376Z,4.83
2018-02-06T04:50:56.871Z,3.77
2018-02-06T04:53:26.392Z,4.90
2018-02-06T04:56:07.971Z,5.10
2018-02-06T04:58:37.487Z,3.77
2018-02-06T05:01:20.389Z,4.60
2018-02-06T05:03:49.894Z,3.60
2018-02-06T05:06:19.401Z,4.17
2018-02-06T05:08:48.928Z,4.03
2018-02-06T05:11:18.422Z,5.20
2018-02-06T05:14:00.082Z,3.37
2018-02-06T05:16:30.041Z,4.03
2018-02-06T05:18:59.570Z,3.20
2018-02-06T05:21:29.046Z,3.90
2018-02-06T05:23:58.529Z,3.87
2018-02-06T05:26:28.429Z,4.10
2018-02-06T05:28:57.969Z,3.70
2018-02-06T05:31:41.431Z,4.27
2018-02-06T05:34:10.944Z,5.33
2018-02-06T05:36:40.489Z,4.57
2018-02-06T05:39:09.966Z,4.47
2018-02-06T05:41:52.810Z,4.23
2018-02-06T05:44:22.338Z,3.73
2018-02-06T05:46:52.230Z,4.50
2018-02-06T05:49:21.774Z,3.40
2018-02-06T05:52:04.315Z,2.77
2018-02-06T05:54:39.967Z,4.00
2018-02-06T05:57:15.929Z,3.37
2018-02-06T05:59:45.462Z,4.00
2018-02-06T06:02:18.766Z,4.30
2018-02-06T06:04:49.729Z,3.97
2018-02-06T06:07:20.347Z,3.53
2018-02-06T06:10:02.969Z,4.17
2018-02-06T06:12:35.850Z,4.37
2018-02-06T06:15:05.377Z,3.80
2018-02-06T06:17:34.917Z,4.33
2018-02-06T06:20:04.456Z,5.20
2018-02-06T06:22:34.003Z,4.40
2018-02-06T06:25:04.554Z,3.73
2018-02-06T06:27:34.066Z,5.60
2018-02-06T06:30:03.574Z,3.60
2018-02-06T06:32:39.835Z,4.93
2018-02-06T06:35:24.510Z,3.90
2018-02-06T06:37:54.041Z,3.50
2018-02-06T06:40:38.322Z,4.70
2018-02-06T06:43:07.884Z,4.87
2018-02-06T06:45:41.267Z,4.40
2018-02-06T06:48:11.422Z,4.30
2018-02-06T06:50:47.166Z,3.93
2018-02-06T06:53:16.744Z,3.53
2018-02-06T06:55:46.310Z,5.03
2018-02-06T06:58:15.905Z,3.30
2018-02-06T07:00:45.497Z,4.00
2018-02-06T07:03:16.514Z,3.00
2018-02-06T07:05:46.075Z,4.03
2018-02-06T07:08:15.613Z,3.40
2018-02-06T07:10:52.329Z,2.97
2018-02-06T07:13:21.915Z,3.50
2018-02-06T07:15:51.498Z,3.40
2018-02-06T07:18:21.064Z,3.60
2018-02-06T07:20:50.632Z,2.80
2018-02-06T07:23:20.404Z,2.73
2018-02-06T07:25:57.246Z,2.70
2018-02-06T07:28:34.556Z,2.70
2018-02-06T07:31:10.437Z,2.53
2018-02-06T07:33:40.058Z,3.27
2018-02-06T07:36:10.822Z,3.07
2018-02-06T07:38:40.443Z,3.17
2018-02-06T07:41:10.012Z,3.30
2018-02-06T07:43:39.563Z,3.20
2018-02-06T07:46:12.123Z,3.00
2018-02-06T07:48:41.639Z,3.90
2018-02-06T07:51:24.659Z,3.23
2018-02-06T07:53:54.236Z,3.47
2018-02-06T07:56:27.242Z,4.80
2018-02-06T07:59:00.302Z,3.97
2018-02-06T08:01:29.974Z,3.53
2018-02-06T08:04:12.470Z,3.30
2018-02-06T08:06:42.764Z,3.37
2018-02-06T08:09:13.319Z,1.70
2018-02-06T08:11:42.869Z,2.40
2018-02-06T08:14:26.101Z,1.97
2018-02-06T08:16:55.594Z,2.07
2018-02-06T08:19:25.244Z,2.47
2018-02-06T08:22:01.891Z,2.07
2018-02-06T08:24:31.611Z,2.33
2018-02-06T08:27:01.141Z,2.10
2018-02-06T08:29:43.570Z,2.30
2018-02-06T08:32:13.177Z,1.80
2018-02-06T08:34:42.786Z,2.30
2018-02-06T08:37:12.286Z,2.47
2018-02-06T08:39:41.829Z,2.20
2018-02-06T08:42:23.623Z,2.77
2018-02-06T08:44:53.512Z,2.10
2018-02-06T08:47:23.040Z,2.83
2018-02-06T08:49:52.544Z,2.60
2018-02-06T08:52:30.769Z,3.23
2018-02-06T08:55:00.725Z,2.23
2018-02-06T08:57:37.721Z,2.57
2018-02-06T09:00:07.603Z,1.90
2018-02-06T09:02:37.127Z,2.37
2018-02-06T09:05:13.690Z,2.07
2018-02-06T09:07:43.266Z,2.20
2018-02-06T09:10:12.825Z,2.00
2018-02-06T09:12:42.569Z,2.13
2018-02-06T09:15:12.173Z,1.60
2018-02-06T09:17:41.733Z,2.20
2018-02-06T09:20:11.695Z,1.90
2018-02-06T09:22:41.213Z,1.93
2018-02-06T09:25:10.734Z,1.83
2018-02-06T09:27:40.250Z,2.27
2018-02-06T09:30:09.794Z,2.00
2018-02-06T09:32:39.356Z,2.00
2018-02-06T09:35:08.946Z,2.37
2018-02-06T09:37:38.484Z,2.30
2018-02-06T09:40:08.268Z,2.07
2018-02-06T09:42:37.861Z,2.13
2018-02-06T09:45:13.556Z,2.30
2018-02-06T09:47:43.045Z,2.00
2018-02-06T09:50:14.150Z,2.80
2018-02-06T09:52:52.594Z,1.83
2018-02-06T09:55:22.213Z,2.63
2018-02-06T09:57:51.742Z,2.10
2018-02-06T10:00:21.258Z,3.17
2018-02-06T10:03:02.894Z,1.97
2018-02-06T10:05:32.538Z,2.60
2018-02-06T10:08:03.049Z,2.10
2018-02-06T10:10:32.529Z,2.30
2018-02-06T10:13:02.058Z,2.20
2018-02-06T10:15:31.601Z,2.63
2018-02-06T10:18:02.470Z,1.90
2018-02-06T10:20:31.966Z,2.77
2018-02-06T10:23:01.500Z,3.30
2018-02-06T10:25:31.064Z,4.20
2018-02-06T10:28:00.605Z,3.70
2018-02-06T10:30:37.468Z,1.97
2018-02-06T10:33:14.229Z,2.23
2018-02-06T10:35:50.826Z,4.07
2018-02-06T10:38:20.522Z,2.80
2018-02-06T10:40:51.366Z,2.87
2018-02-06T10:43:40.639Z,2.60
2018-02-06T10:46:10.262Z,2.80
2018-02-06T10:48:39.878Z,2.40
2018-02-06T10:51:09.447Z,1.87
2018-02-06T10:53:53.712Z,2.03
2018-02-06T10:56:23.229Z,2.57
2018-02-06T10:58:52.789Z,2.70
2018-02-06T11:01:22.353Z,2.37
2018-02-06T11:04:00.917Z,2.60
2018-02-06T11:06:30.457Z,2.70
2018-02-06T11:08:59.941Z,3.67
2018-02-06T11:11:29.548Z,3.63
2018-02-06T11:13:59.072Z,3.80
2018-02-06T11:16:28.578Z,3.77
2018-02-06T11:18:58.112Z,3.50
2018-02-06T11:21:27.643Z,3.30
2018-02-06T11:23:57.706Z,3.03
2018-02-06T11:26:40.798Z,2.10
2018-02-06T11:29:10.425Z,3.00
2018-02-06T11:31:39.974Z,2.63
2018-02-06T11:34:09.516Z,2.10
2018-02-06T11:36:39.061Z,3.20
2018-02-06T11:39:08.550Z,2.90
2018-02-06T11:41:38.833Z,3.40
2018-02-06T11:44:08.401Z,3.67
2018-02-06T11:46:46.186Z,3.50
2018-02-06T12:07:30.378Z,5.30
2018-02-06T12:12:45.395Z,5.13
2018-02-06T12:17:51.784Z,4.67
2018-02-06T12:25:49.711Z,4.50
2018-02-06T12:28:21.162Z,4.60
2018-02-06T12:30:51.623Z,4.43
2018-02-06T12:33:25.307Z,4.17
2018-02-06T12:35:55.800Z,4.60
2018-02-06T12:38:26.965Z,3.67
2018-02-06T12:40:57.216Z,3.37
2018-02-06T12:43:30.356Z,3.80
2018-02-06T12:46:08.176Z,2.97
2018-02-06T12:49:01.167Z,2.90
2018-02-06T12:51:40.057Z,3.10
2018-02-06T12:54:16.500Z,2.43
2018-02-06T12:56:50.673Z,4.13
2018-02-06T12:59:27.009Z,3.90
2018-02-06T13:01:56.557Z,4.17
2018-02-06T13:04:27.071Z,3.20
2018-02-06T13:06:57.494Z,2.67
2018-02-06T13:09:40.595Z,3.13
2018-02-06T13:14:59.248Z,2.50
2018-02-06T13:17:29.238Z,2.47
2018-02-06T13:22:49.314Z,2.67
2018-02-06T13:25:23.013Z,2.47
2018-02-06T13:30:59.895Z,3.30
2018-02-06T13:33:43.821Z,3.20
2018-02-06T13:36:30.816Z,3.10
2018-02-06T13:39:00.668Z,3.40
2018-02-06T13:41:30.547Z,3.40
2018-02-06T13:44:00.140Z,3.87
2018-02-06T13:46:29.725Z,4.00
2018-02-06T13:49:12.773Z,3.90
2018-02-06T13:51:42.387Z,3.40
2018-02-06T13:54:12.258Z,3.43
2018-02-06T13:56:41.829Z,2.60
2018-02-06T13:59:11.390Z,4.77
2018-02-06T14:01:41.893Z,4.20
2018-02-06T14:04:11.580Z,2.50
2018-02-06T14:06:41.192Z,4.23
2018-02-06T14:09:25.775Z,4.43
2018-02-06T14:11:55.618Z,3.83
2018-02-06T14:14:32.529Z,2.97
2018-02-06T14:17:02.066Z,3.23
2018-02-06T14:19:31.654Z,2.30
2018-02-06T14:22:11.026Z,3.47
2018-02-06T14:24:42.218Z,2.73
2018-02-06T14:27:11.951Z,3.40
2018-02-06T14:29:41.713Z,4.10
2018-02-06T14:32:11.381Z,3.40
2018-02-06T14:34:40.918Z,3.83
2018-02-06T14:37:10.511Z,3.60
2018-02-06T14:39:40.847Z,3.60
2018-02-06T14:42:10.404Z,5.40
2018-02-06T14:44:47.124Z,4.93
2018-02-06T14:47:16.609Z,3.30
2018-02-06T14:49:59.553Z,4.00
2018-02-06T14:52:29.091Z,2.80
2018-02-06T14:54:58.829Z,2.83
2018-02-06T14:57:42.387Z,2.50
2018-02-06T15:00:13.307Z,3.00
2018-02-06T15:02:49.083Z,3.57
2018-02-06T15:05:25.834Z,2.87
2018-02-06T15:07:55.298Z,2.63
2018-02-06T15:10:24.808Z,2.93
2018-02-06T15:12:55.439Z,3.07
2018-02-06T15:15:24.962Z,4.10
2018-02-06T15:17:54.582Z,4.00
2018-02-06T15:20:24.123Z,2.37
2018-02-06T15:22:59.775Z,3.10
2018-02-06T15:25:30.907Z,2.50
2018-02-06T15:28:00.393Z,3.20
2018-02-06T15:30:29.937Z,3.70
2018-02-06T15:33:05.493Z,3.00
2018-02-06T15:35:35.006Z,2.67
2018-02-06T15:38:04.582Z,3.00
2018-02-06T15:40:34.145Z,2.77
2018-02-06T15:43:03.726Z,2.13
2018-02-06T15:45:33.310Z,2.60
2018-02-06T15:48:02.805Z,2.30
2018-02-06T15:50:32.346Z,3.23
2018-02-06T15:53:01.909Z,2.70
2018-02-06T15:55:31.469Z,3.27
2018-02-06T15:58:01.009Z,3.97
2018-02-06T16:00:31.378Z,3.10
2018-02-06T16:03:00.906Z,3.10
2018-02-06T16:05:30.450Z,2.80
2018-02-06T16:08:00.016Z,2.50
2018-02-06T16:10:29.557Z,2.33
2018-02-06T16:12:59.131Z,1.97
2018-02-06T16:15:28.645Z,3.63
2018-02-06T16:17:58.150Z,2.63
2018-02-06T16:20:27.810Z,2.60
2018-02-06T16:22:57.356Z,2.70
2018-02-06T16:25:26.875Z,2.40
2018-02-06T16:27:56.393Z,2.20
2018-02-06T16:30:25.897Z,2.00
2018-02-06T16:33:02.447Z,2.73
2018-02-06T16:35:33.446Z,2.60
2018-02-06T16:38:03.034Z,2.53
2018-02-06T16:40:33.836Z,2.10
2018-02-06T16:43:03.365Z,2.43
2018-02-06T16:45:45.938Z,2.10
2018-02-06T16:48:15.675Z,2.23
2018-02-06T16:50:51.252Z,3.20
2018-02-06T16:53:20.744Z,3.10
2018-02-06T16:55:50.317Z,3.67
2018-02-06T16:58:19.858Z,2.60
2018-02-06T17:00:49.351Z,2.50
2018-02-06T17:03:19.054Z,2.27
2018-02-06T17:05:48.688Z,2.17
2018-02-06T17:08:18.217Z,2.47
2018-02-06T17:10:48.122Z,2.50
2018-02-06T17:13:25.260Z,2.23
2018-02-06T17:15:55.048Z,2.67
2018-02-06T17:18:24.691Z,3.83
2018-02-06T17:20:56.002Z,3.03
2018-02-06T17:24:01.333Z,3.63
2018-02-06T17:26:31.113Z,3.03
2018-02-06T17:29:00.720Z,3.47
2018-02-06T17:31:31.060Z,4.10
2018-02-06T17:36:34.399Z,3.00
2018-02-06T17:39:04.255Z,3.63
2018-02-06T17:41:47.110Z,3.10
2018-02-06T17:44:23.574Z,3.20
2018-02-06T17:52:32.657Z,4.43
2018-02-06T17:57:58.445Z,4.00
2018-02-06T18:03:23.954Z,4.07
2018-02-06T18:05:57.528Z,4.23
2018-02-06T18:11:59.973Z,3.27
2018-02-06T18:18:10.008Z,3.80
2018-02-06T18:27:55.571Z,3.50
2018-02-06T19:44:45.443Z,3.33
2018-02-06T19:59:27.956Z,7.57
2018-02-06T20:25:03.581Z,6.97
2018-02-06T20:34:18.792Z,5.27
2018-02-06T20:37:00.839Z,5.63
2018-02-06T20:39:41.195Z,5.33
2018-02-06T20:42:11.778Z,5.43
2018-02-06T20:44:54.278Z,5.33
2018-02-06T20:50:39.241Z,5.63
2018-02-06T20:53:24.564Z,5.57
2018-02-06T20:55:54.340Z,4.80
2018-02-06T20:58:25.162Z,5.03
2018-02-06T21:00:54.771Z,4.60
2018-02-06T21:03:37.784Z,4.90
2018-02-06T21:06:07.414Z,5.03
2018-02-06T21:08:37.191Z,4.80
2018-02-06T21:11:06.722Z,4.50
2018-02-06T21:13:36.467Z,4.07
2018-02-06T21:16:06.072Z,4.87
2018-02-06T21:18:36.374Z,5.17
2018-02-06T21:21:06.808Z,4.40
2018-02-06T21:23:36.437Z,3.77
2018-02-06T21:26:06.362Z,4.33
2018-02-06T21:28:37.264Z,3.70
2018-02-06T21:31:15.794Z,4.47
2018-02-06T21:33:55.345Z,3.77
2018-02-06T21:36:25.277Z,3.60
2018-02-06T21:38:55.378Z,3.30
2018-02-06T21:41:25.677Z,4.30
2018-02-06T21:44:22.317Z,3.50
2018-02-06T21:49:30.837Z,3.20
2018-02-06T21:52:00.683Z,3.20
2018-02-06T21:54:46.591Z,3.17
2018-02-06T21:57:17.144Z,3.63
2018-02-06T21:59:46.676Z,3.70
2018-02-06T22:02:21.853Z,3.50
2018-02-06T22:04:52.465Z,3.40
2018-02-06T22:07:25.975Z,3.80
2018-02-06T22:10:09.927Z,3.10
2018-02-06T22:15:18.375Z,2.90
2018-02-06T22:18:00.565Z,3.10
2018-02-06T22:20:37.446Z,3.23
2018-02-06T22:23:07.875Z,3.80
2018-02-06T22:28:21.686Z,3.23
2018-02-06T22:30:52.537Z,3.30
2018-02-06T22:33:42.020Z,3.53
2018-02-06T22:36:22.994Z,3.33
2018-02-06T22:41:29.252Z,3.60
2018-02-06T22:44:11.520Z,3.50
2018-02-06T22:46:46.716Z,3.10
2018-02-06T22:49:16.647Z,3.60
2018-02-06T22:51:51.820Z,2.27
2018-02-06T22:54:21.360Z,3.33
2018-02-06T22:56:51.348Z,3.03
2018-02-06T22:59:21.017Z,3.00
2018-02-06T23:01:50.607Z,3.37
2018-02-06T23:04:20.182Z,3.10
2018-02-06T23:07:02.895Z,2.93
2018-02-06T23:09:32.870Z,3.03
2018-02-06T23:12:02.422Z,3.37
2018-02-06T23:14:31.985Z,2.50
2018-02-06T23:17:01.553Z,3.10
2018-02-06T23:19:31.111Z,2.97
2018-02-06T23:22:00.670Z,2.90
2018-02-06T23:24:30.163Z,3.37
2018-02-06T23:26:59.670Z,3.20
2018-02-06T23:29:32.407Z,3.20
2018-02-06T23:32:04.479Z,3.20
2018-02-06T23:34:35.056Z,3.30
2018-02-06T23:37:11.420Z,3.07
2018-02-06T23:39:48.350Z,2.90
2018-02-06T23:47:46.695Z,2.97
2018-02-06T23:50:16.323Z,2.70
2018-02-06T23:52:47.815Z,3.90
2018-02-06T23:55:17.617Z,3.20
2018-02-06T23:57:47.180Z,2.57
